sensor_id;sensor_type;location;lat;lon;timestamp;temperature;humidity
22161;DHT22;49035;48.812;11.762;2023-06-22T00:01:55;16.10;99.90
22161;DHT22;49035;48.812;11.762;2023-06-22T00:04:21;16.20;99.90
22161;DHT22;49035;48.812;11.762;2023-06-22T00:06:46;16.20;99.90
22161;DHT22;49035;48.812;11.762;2023-06-22T00:09:12;16.10;99.90
22161;DHT22;49035;48.812;11.762;2023-06-22T00:11:38;16.30;99.90
22161;DHT22;49035;48.812;11.762;2023-06-22T00:14:04;16.30;99.90
22161;DHT22;49035;48.812;11.762;2023-06-22T00:16:31;16.30;99.90
22161;DHT22;49035;48.812;11.762;2023-06-22T00:18:57;16.20;99.90
22161;DHT22;49035;48.812;11.762;2023-06-22T00:21:29;16.10;99.90
22161;DHT22;49035;48.812;11.762;2023-06-22T00:23:55;16.00;99.90
22161;DHT22;49035;48.812;11.762;2023-06-22T00:26:21;15.90;99.90
22161;DHT22;49035;48.812;11.762;2023-06-22T00:28:47;15.90;99.90
22161;DHT22;49035;48.812;11.762;2023-06-22T00:31:13;15.90;99.90
22161;DHT22;49035;48.812;11.762;2023-06-22T00:33:39;16.20;99.90
22161;DHT22;49035;48.812;11.762;2023-06-22T00:36:05;16.10;99.90
22161;DHT22;49035;48.812;11.762;2023-06-22T00:38:33;16.20;99.90
22161;DHT22;49035;48.812;11.762;2023-06-22T00:40:58;16.50;99.90
22161;DHT22;49035;48.812;11.762;2023-06-22T00:43:24;16.40;99.90
22161;DHT22;49035;48.812;11.762;2023-06-22T00:45:50;16.30;99.90
22161;DHT22;49035;48.812;11.762;2023-06-22T00:48:15;16.40;99.90
22161;DHT22;49035;48.812;11.762;2023-06-22T00:50:41;16.40;99.90
22161;DHT22;49035;48.812;11.762;2023-06-22T00:53:08;16.50;99.90
22161;DHT22;49035;48.812;11.762;2023-06-22T00:55:44;16.30;99.90
22161;DHT22;49035;48.812;11.762;2023-06-22T00:58:12;16.40;99.90
22161;DHT22;49035;48.812;11.762;2023-06-22T01:00:39;16.50;99.90
22161;DHT22;49035;48.812;11.762;2023-06-22T01:03:05;16.50;99.90
22161;DHT22;49035;48.812;11.762;2023-06-22T01:05:34;16.50;99.90
22161;DHT22;49035;48.812;11.762;2023-06-22T01:11:12;16.50;99.90
22161;DHT22;49035;48.812;11.762;2023-06-22T01:13:50;16.30;99.90
22161;DHT22;49035;48.812;11.762;2023-06-22T01:16:29;16.10;99.90
22161;DHT22;49035;48.812;11.762;2023-06-22T01:18:57;16.10;99.90
22161;DHT22;49035;48.812;11.762;2023-06-22T01:21:25;16.00;99.90
22161;DHT22;49035;48.812;11.762;2023-06-22T01:29:06;15.90;99.90
22161;DHT22;49035;48.812;11.762;2023-06-22T01:31:34;15.90;99.90
22161;DHT22;49035;48.812;11.762;2023-06-22T01:34:03;15.90;99.90
22161;DHT22;49035;48.812;11.762;2023-06-22T01:36:31;15.80;99.90
22161;DHT22;49035;48.812;11.762;2023-06-22T01:38:58;15.70;99.90
22161;DHT22;49035;48.812;11.762;2023-06-22T01:41:29;15.70;99.90
22161;DHT22;49035;48.812;11.762;2023-06-22T01:43:56;15.90;99.90
22161;DHT22;49035;48.812;11.762;2023-06-22T01:46:23;15.80;99.90
22161;DHT22;49035;48.812;11.762;2023-06-22T01:48:49;15.80;99.90
22161;DHT22;49035;48.812;11.762;2023-06-22T01:51:15;15.80;99.90
22161;DHT22;49035;48.812;11.762;2023-06-22T01:53:41;15.80;99.90
22161;DHT22;49035;48.812;11.762;2023-06-22T01:56:08;15.80;99.90
22161;DHT22;49035;48.812;11.762;2023-06-22T01:58:37;15.80;99.90
22161;DHT22;49035;48.812;11.762;2023-06-22T02:01:14;15.70;99.90
22161;DHT22;49035;48.812;11.762;2023-06-22T02:03:46;15.70;99.90
22161;DHT22;49035;48.812;11.762;2023-06-22T02:06:20;15.70;99.90
22161;DHT22;49035;48.812;11.762;2023-06-22T02:08:54;16.00;99.90
22161;DHT22;49035;48.812;11.762;2023-06-22T02:11:21;15.90;99.90
22161;DHT22;49035;48.812;11.762;2023-06-22T02:13:47;15.90;99.90
22161;DHT22;49035;48.812;11.762;2023-06-22T02:16:14;15.80;99.90
22161;DHT22;49035;48.812;11.762;2023-06-22T02:18:48;15.80;99.90
22161;DHT22;49035;48.812;11.762;2023-06-22T02:21:18;15.80;99.90
22161;DHT22;49035;48.812;11.762;2023-06-22T02:23:43;15.80;99.90
22161;DHT22;49035;48.812;11.762;2023-06-22T02:26:09;15.60;99.90
22161;DHT22;49035;48.812;11.762;2023-06-22T02:28:35;15.60;99.90
22161;DHT22;49035;48.812;11.762;2023-06-22T02:31:01;15.60;99.90
22161;DHT22;49035;48.812;11.762;2023-06-22T02:33:26;15.60;99.90
22161;DHT22;49035;48.812;11.762;2023-06-22T02:35:53;15.60;99.90
22161;DHT22;49035;48.812;11.762;2023-06-22T02:38:18;15.60;99.90
22161;DHT22;49035;48.812;11.762;2023-06-22T02:40:45;15.60;99.90
22161;DHT22;49035;48.812;11.762;2023-06-22T02:43:10;15.50;99.90
22161;DHT22;49035;48.812;11.762;2023-06-22T02:45:36;15.40;99.90
22161;DHT22;49035;48.812;11.762;2023-06-22T02:48:01;15.30;99.90
22161;DHT22;49035;48.812;11.762;2023-06-22T02:50:27;15.20;99.90
22161;DHT22;49035;48.812;11.762;2023-06-22T02:52:52;15.20;99.90
22161;DHT22;49035;48.812;11.762;2023-06-22T02:55:18;15.20;99.90
22161;DHT22;49035;48.812;11.762;2023-06-22T02:57:44;15.20;99.90
22161;DHT22;49035;48.812;11.762;2023-06-22T03:00:13;15.20;99.90
22161;DHT22;49035;48.812;11.762;2023-06-22T03:02:47;15.20;99.90
22161;DHT22;49035;48.812;11.762;2023-06-22T03:05:13;15.10;99.90
22161;DHT22;49035;48.812;11.762;2023-06-22T03:07:45;15.10;99.90
22161;DHT22;49035;48.812;11.762;2023-06-22T03:10:12;15.00;99.90
22161;DHT22;49035;48.812;11.762;2023-06-22T03:12:38;14.90;99.90
22161;DHT22;49035;48.812;11.762;2023-06-22T03:15:08;14.80;99.90
22161;DHT22;49035;48.812;11.762;2023-06-22T03:17:35;14.90;99.90
22161;DHT22;49035;48.812;11.762;2023-06-22T03:20:02;14.90;99.90
22161;DHT22;49035;48.812;11.762;2023-06-22T03:22:37;15.00;99.90
22161;DHT22;49035;48.812;11.762;2023-06-22T03:25:03;15.20;99.90
22161;DHT22;49035;48.812;11.762;2023-06-22T03:27:28;15.30;99.90
22161;DHT22;49035;48.812;11.762;2023-06-22T03:29:54;15.40;99.90
22161;DHT22;49035;48.812;11.762;2023-06-22T03:32:19;15.40;99.90
22161;DHT22;49035;48.812;11.762;2023-06-22T03:34:45;15.40;99.90
22161;DHT22;49035;48.812;11.762;2023-06-22T03:37:14;15.50;99.90
22161;DHT22;49035;48.812;11.762;2023-06-22T03:39:41;15.50;99.90
22161;DHT22;49035;48.812;11.762;2023-06-22T03:42:07;15.50;99.90
22161;DHT22;49035;48.812;11.762;2023-06-22T03:44:33;15.50;99.90
22161;DHT22;49035;48.812;11.762;2023-06-22T03:46:58;15.60;99.90
22161;DHT22;49035;48.812;11.762;2023-06-22T03:49:24;15.70;99.90
22161;DHT22;49035;48.812;11.762;2023-06-22T03:51:49;15.80;99.90
22161;DHT22;49035;48.812;11.762;2023-06-22T03:54:15;15.90;99.90
22161;DHT22;49035;48.812;11.762;2023-06-22T03:56:41;15.90;99.90
22161;DHT22;49035;48.812;11.762;2023-06-22T03:59:06;16.10;99.90
22161;DHT22;49035;48.812;11.762;2023-06-22T04:01:32;16.20;99.90
22161;DHT22;49035;48.812;11.762;2023-06-22T04:03:57;16.40;99.90
22161;DHT22;49035;48.812;11.762;2023-06-22T04:06:23;16.50;99.90
22161;DHT22;49035;48.812;11.762;2023-06-22T04:08:48;16.60;99.90
22161;DHT22;49035;48.812;11.762;2023-06-22T04:11:17;16.80;99.90
22161;DHT22;49035;48.812;11.762;2023-06-22T04:16:15;17.40;99.90
22161;DHT22;49035;48.812;11.762;2023-06-22T04:18:40;17.80;99.90
22161;DHT22;49035;48.812;11.762;2023-06-22T04:21:07;17.90;99.90
22161;DHT22;49035;48.812;11.762;2023-06-22T04:23:32;18.10;99.90
22161;DHT22;49035;48.812;11.762;2023-06-22T04:25:58;18.20;99.90
22161;DHT22;49035;48.812;11.762;2023-06-22T04:28:24;18.20;99.90
22161;DHT22;49035;48.812;11.762;2023-06-22T04:30:50;18.40;99.90
22161;DHT22;49035;48.812;11.762;2023-06-22T04:33:16;18.60;99.90
22161;DHT22;49035;48.812;11.762;2023-06-22T04:35:44;18.90;99.90
22161;DHT22;49035;48.812;11.762;2023-06-22T04:38:12;19.20;99.90
22161;DHT22;49035;48.812;11.762;2023-06-22T04:40:39;19.50;99.90
22161;DHT22;49035;48.812;11.762;2023-06-22T04:43:04;19.90;99.90
22161;DHT22;49035;48.812;11.762;2023-06-22T04:45:32;20.10;99.90
22161;DHT22;49035;48.812;11.762;2023-06-22T04:47:58;20.20;99.90
22161;DHT22;49035;48.812;11.762;2023-06-22T04:50:23;20.40;99.90
22161;DHT22;49035;48.812;11.762;2023-06-22T04:52:50;20.80;99.90
22161;DHT22;49035;48.812;11.762;2023-06-22T04:55:16;21.30;99.90
22161;DHT22;49035;48.812;11.762;2023-06-22T04:57:45;21.80;99.90
22161;DHT22;49035;48.812;11.762;2023-06-22T05:00:15;22.40;99.90
22161;DHT22;49035;48.812;11.762;2023-06-22T05:02:44;23.00;99.90
22161;DHT22;49035;48.812;11.762;2023-06-22T05:05:10;23.20;99.90
22161;DHT22;49035;48.812;11.762;2023-06-22T05:07:40;23.50;99.90
22161;DHT22;49035;48.812;11.762;2023-06-22T05:10:09;23.80;99.90
22161;DHT22;49035;48.812;11.762;2023-06-22T05:12:36;24.00;99.90
22161;DHT22;49035;48.812;11.762;2023-06-22T05:15:01;24.00;99.90
22161;DHT22;49035;48.812;11.762;2023-06-22T05:17:27;24.20;99.90
22161;DHT22;49035;48.812;11.762;2023-06-22T05:19:52;24.70;99.90
22161;DHT22;49035;48.812;11.762;2023-06-22T05:22:18;25.20;99.90
22161;DHT22;49035;48.812;11.762;2023-06-22T05:24:44;25.70;99.90
22161;DHT22;49035;48.812;11.762;2023-06-22T05:27:10;26.10;99.90
22161;DHT22;49035;48.812;11.762;2023-06-22T05:29:39;26.60;99.90
22161;DHT22;49035;48.812;11.762;2023-06-22T05:32:05;26.90;99.90
22161;DHT22;49035;48.812;11.762;2023-06-22T05:34:31;27.30;99.90
22161;DHT22;49035;48.812;11.762;2023-06-22T05:36:56;27.90;99.90
22161;DHT22;49035;48.812;11.762;2023-06-22T05:39:24;28.00;99.90
22161;DHT22;49035;48.812;11.762;2023-06-22T05:41:51;28.10;99.90
22161;DHT22;49035;48.812;11.762;2023-06-22T05:44:17;28.20;97.70
22161;DHT22;49035;48.812;11.762;2023-06-22T05:46:43;28.10;94.90
22161;DHT22;49035;48.812;11.762;2023-06-22T05:49:13;27.70;94.90
22161;DHT22;49035;48.812;11.762;2023-06-22T05:51:40;27.30;97.80
22161;DHT22;49035;48.812;11.762;2023-06-22T05:54:06;27.30;96.80
22161;DHT22;49035;48.812;11.762;2023-06-22T05:56:31;27.30;95.70
22161;DHT22;49035;48.812;11.762;2023-06-22T05:58:57;27.50;95.60
22161;DHT22;49035;48.812;11.762;2023-06-22T06:01:22;27.30;94.40
22161;DHT22;49035;48.812;11.762;2023-06-22T06:03:48;27.20;96.30
22161;DHT22;49035;48.812;11.762;2023-06-22T06:06:15;27.50;95.30
22161;DHT22;49035;48.812;11.762;2023-06-22T06:08:41;27.30;94.30
22161;DHT22;49035;48.812;11.762;2023-06-22T06:11:06;26.70;96.50
22161;DHT22;49035;48.812;11.762;2023-06-22T06:13:32;26.30;97.70
22161;DHT22;49035;48.812;11.762;2023-06-22T06:15:58;26.60;96.90
22161;DHT22;49035;48.812;11.762;2023-06-22T06:18:24;26.70;97.50
22161;DHT22;49035;48.812;11.762;2023-06-22T06:20:50;27.00;97.70
22161;DHT22;49035;48.812;11.762;2023-06-22T06:23:16;27.40;94.60
22161;DHT22;49035;48.812;11.762;2023-06-22T06:25:41;27.50;95.00
22161;DHT22;49035;48.812;11.762;2023-06-22T06:28:07;27.60;93.50
22161;DHT22;49035;48.812;11.762;2023-06-22T06:30:32;27.10;94.40
22161;DHT22;49035;48.812;11.762;2023-06-22T06:32:58;27.00;95.10
22161;DHT22;49035;48.812;11.762;2023-06-22T06:35:24;26.90;94.70
22161;DHT22;49035;48.812;11.762;2023-06-22T06:37:50;27.20;96.70
22161;DHT22;49035;48.812;11.762;2023-06-22T06:40:17;27.70;93.50
22161;DHT22;49035;48.812;11.762;2023-06-22T06:42:45;28.30;91.80
22161;DHT22;49035;48.812;11.762;2023-06-22T06:45:21;28.70;90.00
22161;DHT22;49035;48.812;11.762;2023-06-22T06:47:48;28.90;91.50
22161;DHT22;49035;48.812;11.762;2023-06-22T06:50:14;29.50;88.40
22161;DHT22;49035;48.812;11.762;2023-06-22T06:52:40;29.30;85.80
22161;DHT22;49035;48.812;11.762;2023-06-22T06:55:07;29.40;85.40
22161;DHT22;49035;48.812;11.762;2023-06-22T06:57:39;29.40;85.30
22161;DHT22;49035;48.812;11.762;2023-06-22T07:00:06;29.40;83.90
22161;DHT22;49035;48.812;11.762;2023-06-22T07:02:35;29.80;85.60
22161;DHT22;49035;48.812;11.762;2023-06-22T07:05:01;29.80;83.20
22161;DHT22;49035;48.812;11.762;2023-06-22T07:07:29;29.80;81.30
22161;DHT22;49035;48.812;11.762;2023-06-22T07:09:55;30.10;80.40
22161;DHT22;49035;48.812;11.762;2023-06-22T07:12:20;30.40;83.80
22161;DHT22;49035;48.812;11.762;2023-06-22T07:14:46;30.60;78.60
22161;DHT22;49035;48.812;11.762;2023-06-22T07:17:12;31.00;75.20
22161;DHT22;49035;48.812;11.762;2023-06-22T07:19:37;31.10;77.50
22161;DHT22;49035;48.812;11.762;2023-06-22T07:22:03;31.00;72.80
22161;DHT22;49035;48.812;11.762;2023-06-22T07:24:28;30.70;73.30
22161;DHT22;49035;48.812;11.762;2023-06-22T07:26:54;30.50;73.00
22161;DHT22;49035;48.812;11.762;2023-06-22T07:29:20;30.50;77.20
22161;DHT22;49035;48.812;11.762;2023-06-22T07:31:47;30.50;74.60
22161;DHT22;49035;48.812;11.762;2023-06-22T07:34:13;30.30;79.40
22161;DHT22;49035;48.812;11.762;2023-06-22T07:36:38;30.50;75.90
22161;DHT22;49035;48.812;11.762;2023-06-22T07:39:04;30.90;73.70
22161;DHT22;49035;48.812;11.762;2023-06-22T07:41:30;30.90;72.50
22161;DHT22;49035;48.812;11.762;2023-06-22T07:43:56;31.30;73.60
22161;DHT22;49035;48.812;11.762;2023-06-22T07:46:22;31.20;72.80
22161;DHT22;49035;48.812;11.762;2023-06-22T07:48:48;31.20;73.30
22161;DHT22;49035;48.812;11.762;2023-06-22T07:51:13;31.40;75.30
22161;DHT22;49035;48.812;11.762;2023-06-22T07:53:41;31.50;70.30
22161;DHT22;49035;48.812;11.762;2023-06-22T07:56:07;31.50;70.70
22161;DHT22;49035;48.812;11.762;2023-06-22T07:58:32;31.50;71.10
22161;DHT22;49035;48.812;11.762;2023-06-22T08:00:59;31.60;70.50
22161;DHT22;49035;48.812;11.762;2023-06-22T08:03:24;31.30;69.90
22161;DHT22;49035;48.812;11.762;2023-06-22T08:05:50;31.20;68.60
22161;DHT22;49035;48.812;11.762;2023-06-22T08:08:16;31.20;70.30
22161;DHT22;49035;48.812;11.762;2023-06-22T08:10:42;31.20;66.20
22161;DHT22;49035;48.812;11.762;2023-06-22T08:13:08;30.70;69.00
22161;DHT22;49035;48.812;11.762;2023-06-22T08:15:33;30.60;69.70
22161;DHT22;49035;48.812;11.762;2023-06-22T08:17:59;30.60;68.90
22161;DHT22;49035;48.812;11.762;2023-06-22T08:20:26;30.60;66.60
22161;DHT22;49035;48.812;11.762;2023-06-22T08:22:54;29.90;72.20
22161;DHT22;49035;48.812;11.762;2023-06-22T08:25:20;30.00;70.40
22161;DHT22;49035;48.812;11.762;2023-06-22T08:27:46;30.20;73.20
22161;DHT22;49035;48.812;11.762;2023-06-22T08:30:16;30.60;70.20
22161;DHT22;49035;48.812;11.762;2023-06-22T08:32:43;30.70;69.40
22161;DHT22;49035;48.812;11.762;2023-06-22T08:35:09;30.60;70.20
22161;DHT22;49035;48.812;11.762;2023-06-22T08:37:35;31.10;73.40
22161;DHT22;49035;48.812;11.762;2023-06-22T08:40:02;31.50;69.30
22161;DHT22;49035;48.812;11.762;2023-06-22T08:42:30;31.90;67.10
22161;DHT22;49035;48.812;11.762;2023-06-22T08:44:57;32.10;67.00
22161;DHT22;49035;48.812;11.762;2023-06-22T08:47:22;32.30;66.80
22161;DHT22;49035;48.812;11.762;2023-06-22T08:49:48;32.60;66.40
22161;DHT22;49035;48.812;11.762;2023-06-22T08:52:14;32.50;65.90
22161;DHT22;49035;48.812;11.762;2023-06-22T08:54:39;32.30;67.50
22161;DHT22;49035;48.812;11.762;2023-06-22T08:57:05;32.10;67.50
22161;DHT22;49035;48.812;11.762;2023-06-22T08:59:31;31.90;63.70
22161;DHT22;49035;48.812;11.762;2023-06-22T09:01:56;31.80;63.70
22161;DHT22;49035;48.812;11.762;2023-06-22T09:04:22;32.10;65.30
22161;DHT22;49035;48.812;11.762;2023-06-22T09:06:48;32.40;65.20
22161;DHT22;49035;48.812;11.762;2023-06-22T09:09:16;32.70;61.70
22161;DHT22;49035;48.812;11.762;2023-06-22T09:11:42;32.70;63.20
22161;DHT22;49035;48.812;11.762;2023-06-22T09:14:08;32.50;61.10
22161;DHT22;49035;48.812;11.762;2023-06-22T09:16:33;32.30;61.10
22161;DHT22;49035;48.812;11.762;2023-06-22T09:18:59;32.20;62.00
22161;DHT22;49035;48.812;11.762;2023-06-22T09:21:25;32.60;63.60
22161;DHT22;49035;48.812;11.762;2023-06-22T09:23:50;32.80;63.30
22161;DHT22;49035;48.812;11.762;2023-06-22T09:26:17;33.00;64.30
22161;DHT22;49035;48.812;11.762;2023-06-22T09:28:43;33.10;62.30
22161;DHT22;49035;48.812;11.762;2023-06-22T09:31:09;33.30;60.40
22161;DHT22;49035;48.812;11.762;2023-06-22T09:33:35;33.40;58.30
22161;DHT22;49035;48.812;11.762;2023-06-22T09:36:01;33.50;57.90
22161;DHT22;49035;48.812;11.762;2023-06-22T09:38:26;33.00;59.50
22161;DHT22;49035;48.812;11.762;2023-06-22T09:40:52;32.80;59.50
22161;DHT22;49035;48.812;11.762;2023-06-22T09:43:17;32.80;59.20
22161;DHT22;49035;48.812;11.762;2023-06-22T09:45:43;33.10;57.70
22161;DHT22;49035;48.812;11.762;2023-06-22T09:48:08;33.40;58.80
22161;DHT22;49035;48.812;11.762;2023-06-22T09:50:35;33.40;58.50
22161;DHT22;49035;48.812;11.762;2023-06-22T09:53:01;33.50;58.70
22161;DHT22;49035;48.812;11.762;2023-06-22T09:55:27;33.40;56.00
22161;DHT22;49035;48.812;11.762;2023-06-22T09:57:52;32.90;57.20
22161;DHT22;49035;48.812;11.762;2023-06-22T10:00:19;32.90;58.70
22161;DHT22;49035;48.812;11.762;2023-06-22T10:02:47;33.10;58.60
22161;DHT22;49035;48.812;11.762;2023-06-22T10:05:12;33.20;58.90
22161;DHT22;49035;48.812;11.762;2023-06-22T10:07:38;33.00;58.40
22161;DHT22;49035;48.812;11.762;2023-06-22T10:10:08;33.00;61.70
22161;DHT22;49035;48.812;11.762;2023-06-22T10:12:33;33.30;59.10
22161;DHT22;49035;48.812;11.762;2023-06-22T10:14:59;33.40;60.00
22161;DHT22;49035;48.812;11.762;2023-06-22T10:17:25;33.70;60.10
22161;DHT22;49035;48.812;11.762;2023-06-22T10:19:50;33.40;60.30
22161;DHT22;49035;48.812;11.762;2023-06-22T10:22:16;33.30;57.40
22161;DHT22;49035;48.812;11.762;2023-06-22T10:24:41;33.40;59.80
22161;DHT22;49035;48.812;11.762;2023-06-22T10:27:11;33.80;58.30
22161;DHT22;49035;48.812;11.762;2023-06-22T10:29:37;33.80;58.80
22161;DHT22;49035;48.812;11.762;2023-06-22T10:32:03;33.70;60.00
22161;DHT22;49035;48.812;11.762;2023-06-22T10:34:28;33.80;60.20
22161;DHT22;49035;48.812;11.762;2023-06-22T10:36:54;34.00;58.40
22161;DHT22;49035;48.812;11.762;2023-06-22T10:39:20;34.40;57.30
22161;DHT22;49035;48.812;11.762;2023-06-22T10:41:45;34.30;56.90
22161;DHT22;49035;48.812;11.762;2023-06-22T10:44:11;34.40;57.80
22161;DHT22;49035;48.812;11.762;2023-06-22T10:46:37;34.30;55.10
22161;DHT22;49035;48.812;11.762;2023-06-22T10:49:03;34.30;57.00
22161;DHT22;49035;48.812;11.762;2023-06-22T10:51:29;34.30;55.80
22161;DHT22;49035;48.812;11.762;2023-06-22T10:53:54;34.40;57.20
22161;DHT22;49035;48.812;11.762;2023-06-22T10:56:20;34.60;56.50
22161;DHT22;49035;48.812;11.762;2023-06-22T10:58:45;34.70;57.40
22161;DHT22;49035;48.812;11.762;2023-06-22T11:01:11;34.30;55.30
22161;DHT22;49035;48.812;11.762;2023-06-22T11:03:37;33.90;56.00
22161;DHT22;49035;48.812;11.762;2023-06-22T11:06:02;34.10;57.90
22161;DHT22;49035;48.812;11.762;2023-06-22T11:08:28;34.50;59.10
22161;DHT22;49035;48.812;11.762;2023-06-22T11:10:54;34.40;56.50
22161;DHT22;49035;48.812;11.762;2023-06-22T11:13:19;34.50;56.00
22161;DHT22;49035;48.812;11.762;2023-06-22T11:15:45;34.90;57.10
22161;DHT22;49035;48.812;11.762;2023-06-22T11:18:10;35.00;56.00
22161;DHT22;49035;48.812;11.762;2023-06-22T11:20:36;34.70;57.10
22161;DHT22;49035;48.812;11.762;2023-06-22T11:23:05;34.20;57.80
22161;DHT22;49035;48.812;11.762;2023-06-22T11:25:31;33.80;57.60
22161;DHT22;49035;48.812;11.762;2023-06-22T11:27:57;33.60;56.70
22161;DHT22;49035;48.812;11.762;2023-06-22T11:30:23;33.70;56.70
22161;DHT22;49035;48.812;11.762;2023-06-22T11:32:48;34.40;59.10
22161;DHT22;49035;48.812;11.762;2023-06-22T11:35:14;35.00;57.10
22161;DHT22;49035;48.812;11.762;2023-06-22T11:37:39;35.50;56.70
22161;DHT22;49035;48.812;11.762;2023-06-22T11:40:05;35.50;58.20
22161;DHT22;49035;48.812;11.762;2023-06-22T11:42:34;35.70;54.40
22161;DHT22;49035;48.812;11.762;2023-06-22T11:45:00;35.40;55.10
22161;DHT22;49035;48.812;11.762;2023-06-22T11:47:25;35.50;54.80
22161;DHT22;49035;48.812;11.762;2023-06-22T11:49:51;35.50;54.90
22161;DHT22;49035;48.812;11.762;2023-06-22T11:52:16;35.50;54.20
22161;DHT22;49035;48.812;11.762;2023-06-22T11:54:43;35.40;55.90
22161;DHT22;49035;48.812;11.762;2023-06-22T11:57:09;35.30;56.60
22161;DHT22;49035;48.812;11.762;2023-06-22T11:59:34;35.60;54.70
22161;DHT22;49035;48.812;11.762;2023-06-22T12:02:00;35.30;54.70
22161;DHT22;49035;48.812;11.762;2023-06-22T12:04:25;35.00;55.00
22161;DHT22;49035;48.812;11.762;2023-06-22T12:06:51;35.40;53.60
22161;DHT22;49035;48.812;11.762;2023-06-22T12:09:16;35.70;57.70
22161;DHT22;49035;48.812;11.762;2023-06-22T12:11:42;36.00;55.30
22161;DHT22;49035;48.812;11.762;2023-06-22T12:14:07;35.80;52.20
22161;DHT22;49035;48.812;11.762;2023-06-22T12:16:33;36.00;56.20
22161;DHT22;49035;48.812;11.762;2023-06-22T12:18:58;35.80;52.10
22161;DHT22;49035;48.812;11.762;2023-06-22T12:21:24;35.70;53.40
22161;DHT22;49035;48.812;11.762;2023-06-22T12:23:50;36.00;52.60
22161;DHT22;49035;48.812;11.762;2023-06-22T12:26:16;35.90;52.70
22161;DHT22;49035;48.812;11.762;2023-06-22T12:28:41;35.50;56.50
22161;DHT22;49035;48.812;11.762;2023-06-22T12:31:07;35.60;55.80
22161;DHT22;49035;48.812;11.762;2023-06-22T12:33:33;36.00;52.20
22161;DHT22;49035;48.812;11.762;2023-06-22T12:35:58;36.20;51.80
22161;DHT22;49035;48.812;11.762;2023-06-22T12:38:24;36.20;53.80
22161;DHT22;49035;48.812;11.762;2023-06-22T12:40:51;36.00;50.90
22161;DHT22;49035;48.812;11.762;2023-06-22T12:43:16;35.30;54.40
22161;DHT22;49035;48.812;11.762;2023-06-22T12:45:42;35.10;54.30
22161;DHT22;49035;48.812;11.762;2023-06-22T12:48:07;35.10;54.80
22161;DHT22;49035;48.812;11.762;2023-06-22T12:50:34;35.30;52.90
22161;DHT22;49035;48.812;11.762;2023-06-22T12:53:00;35.90;55.90
22161;DHT22;49035;48.812;11.762;2023-06-22T12:55:27;36.70;51.00
22161;DHT22;49035;48.812;11.762;2023-06-22T12:57:53;36.70;52.10
22161;DHT22;49035;48.812;11.762;2023-06-22T13:00:19;37.10;54.90
22161;DHT22;49035;48.812;11.762;2023-06-22T13:02:45;37.90;50.30
22161;DHT22;49035;48.812;11.762;2023-06-22T13:05:11;37.80;50.10
22161;DHT22;49035;48.812;11.762;2023-06-22T13:07:36;38.30;47.30
22161;DHT22;49035;48.812;11.762;2023-06-22T13:10:02;37.60;47.70
22161;DHT22;49035;48.812;11.762;2023-06-22T13:12:28;36.80;51.20
22161;DHT22;49035;48.812;11.762;2023-06-22T13:14:54;36.40;51.40
22161;DHT22;49035;48.812;11.762;2023-06-22T13:17:20;36.80;53.70
22161;DHT22;49035;48.812;11.762;2023-06-22T13:19:45;37.80;49.90
22161;DHT22;49035;48.812;11.762;2023-06-22T13:24:55;38.70;50.20
22161;DHT22;49035;48.812;11.762;2023-06-22T13:27:20;38.10;51.00
22161;DHT22;49035;48.812;11.762;2023-06-22T13:29:46;38.50;48.60
22161;DHT22;49035;48.812;11.762;2023-06-22T13:32:11;38.90;48.50
22161;DHT22;49035;48.812;11.762;2023-06-22T13:34:37;38.40;47.50
22161;DHT22;49035;48.812;11.762;2023-06-22T13:37:02;38.00;51.00
22161;DHT22;49035;48.812;11.762;2023-06-22T13:39:28;37.90;49.70
22161;DHT22;49035;48.812;11.762;2023-06-22T13:41:54;37.40;49.90
22161;DHT22;49035;48.812;11.762;2023-06-22T13:44:19;36.80;50.20
22161;DHT22;49035;48.812;11.762;2023-06-22T13:46:46;36.30;53.20
22161;DHT22;49035;48.812;11.762;2023-06-22T13:49:12;36.40;52.20
22161;DHT22;49035;48.812;11.762;2023-06-22T13:51:37;36.30;51.00
22161;DHT22;49035;48.812;11.762;2023-06-22T13:54:03;36.50;54.10
22161;DHT22;49035;48.812;11.762;2023-06-22T13:56:28;36.40;53.70
22161;DHT22;49035;48.812;11.762;2023-06-22T13:58:54;36.80;54.70
22161;DHT22;49035;48.812;11.762;2023-06-22T14:01:20;37.30;51.70
22161;DHT22;49035;48.812;11.762;2023-06-22T14:03:47;37.90;50.40
22161;DHT22;49035;48.812;11.762;2023-06-22T14:06:13;38.80;50.60
22161;DHT22;49035;48.812;11.762;2023-06-22T14:08:38;39.40;49.10
22161;DHT22;49035;48.812;11.762;2023-06-22T14:11:04;39.60;49.00
22161;DHT22;49035;48.812;11.762;2023-06-22T14:13:30;39.50;49.30
22161;DHT22;49035;48.812;11.762;2023-06-22T14:15:55;39.60;44.70
22161;DHT22;49035;48.812;11.762;2023-06-22T14:18:21;39.90;46.90
22161;DHT22;49035;48.812;11.762;2023-06-22T14:20:48;40.10;47.40
22161;DHT22;49035;48.812;11.762;2023-06-22T14:23:14;40.30;44.40
22161;DHT22;49035;48.812;11.762;2023-06-22T14:25:40;40.30;47.20
22161;DHT22;49035;48.812;11.762;2023-06-22T14:28:05;40.70;45.50
22161;DHT22;49035;48.812;11.762;2023-06-22T14:30:31;41.10;46.00
22161;DHT22;49035;48.812;11.762;2023-06-22T14:32:57;41.00;44.80
22161;DHT22;49035;48.812;11.762;2023-06-22T14:35:22;41.40;46.60
22161;DHT22;49035;48.812;11.762;2023-06-22T14:37:49;41.00;43.20
22161;DHT22;49035;48.812;11.762;2023-06-22T14:40:15;40.30;43.70
22161;DHT22;49035;48.812;11.762;2023-06-22T14:42:41;40.00;44.10
22161;DHT22;49035;48.812;11.762;2023-06-22T14:45:07;39.40;45.00
22161;DHT22;49035;48.812;11.762;2023-06-22T14:47:32;39.50;43.90
22161;DHT22;49035;48.812;11.762;2023-06-22T14:49:58;40.10;42.70
22161;DHT22;49035;48.812;11.762;2023-06-22T14:52:25;40.60;41.70
22161;DHT22;49035;48.812;11.762;2023-06-22T14:54:51;40.70;42.40
22161;DHT22;49035;48.812;11.762;2023-06-22T14:57:18;40.50;43.30
22161;DHT22;49035;48.812;11.762;2023-06-22T14:59:46;40.10;42.50
22161;DHT22;49035;48.812;11.762;2023-06-22T15:02:11;40.60;45.40
22161;DHT22;49035;48.812;11.762;2023-06-22T15:04:37;41.40;45.90
22161;DHT22;49035;48.812;11.762;2023-06-22T15:07:03;42.20;46.50
22161;DHT22;49035;48.812;11.762;2023-06-22T15:09:28;41.70;41.60
22161;DHT22;49035;48.812;11.762;2023-06-22T15:11:54;41.00;42.90
22161;DHT22;49035;48.812;11.762;2023-06-22T15:14:19;41.40;44.20
22161;DHT22;49035;48.812;11.762;2023-06-22T15:16:45;42.30;43.30
22161;DHT22;49035;48.812;11.762;2023-06-22T15:19:10;42.60;41.90
22161;DHT22;49035;48.812;11.762;2023-06-22T15:21:38;42.00;42.40
22161;DHT22;49035;48.812;11.762;2023-06-22T15:24:04;42.90;42.70